Time;durP1;ratioP1;P1;durP2;ratioP2;P2;SDS_P1;SDS_P2;PMS_P1;PMS_P2;Temp;Humidity;BMP_temperature;BMP_pressure;BME280_temperature;BME280_humidity;BME280_pressure;Samples;Min_cycle;Max_cycle;Signal;HPM_P1;HPM_P2
2021/05/11 00:00:35;;;;;;;5.43;1.58;;;;;;;20.40;56.25;100776.88;5072417;28;20029;-66
2021/05/11 00:03:00;;;;;;;4.72;1.60;;;;;;;20.38;56.23;100767.41;5072053;28;20016;-66
2021/05/11 00:05:30;;;;;;;5.03;1.40;;;;;;;20.39;56.39;100769.88;5072366;28;20028;-66
2021/05/11 00:07:59;;;;;;;6.40;1.45;;;;;;;20.38;56.41;100756.84;5072635;28;20133;-66
2021/05/11 00:10:26;;;;;;;4.03;1.30;;;;;;;20.38;56.19;100767.41;5071414;28;20064;-67
2021/05/11 00:12:52;;;;;;;5.03;1.50;;;;;;;20.35;56.10;100762.41;5072551;28;20472;-66
2021/05/11 00:15:18;;;;;;;4.90;1.40;;;;;;;20.34;56.53;100761.56;5071622;28;20029;-66
2021/05/11 00:17:45;;;;;;;7.60;1.30;;;;;;;20.34;56.14;100763.38;5072259;28;20055;-65
2021/05/11 00:20:12;;;;;;;5.00;1.40;;;;;;;20.35;56.38;100757.09;5072248;28;20418;-66
2021/05/11 00:22:37;;;;;;;4.68;1.35;;;;;;;20.31;56.21;100751.25;5071337;28;20020;-65
2021/05/11 00:25:03;;;;;;;4.95;1.40;;;;;;;20.31;56.23;100751.25;5072526;28;20111;-65
2021/05/11 00:27:28;;;;;;;5.07;1.35;;;;;;;20.30;56.13;100746.94;5072279;28;20024;-67
2021/05/11 00:29:53;;;;;;;4.75;1.55;;;;;;;20.34;55.93;100760.72;5071368;28;20025;-65
2021/05/11 00:32:19;;;;;;;4.53;1.53;;;;;;;20.33;56.07;100761.69;5071762;28;20028;-65
2021/05/11 00:34:44;;;;;;;5.45;1.50;;;;;;;20.33;56.25;100765.19;5072254;28;20020;-65
2021/05/11 00:37:12;;;;;;;5.65;1.58;;;;;;;20.29;55.97;100759.31;5071280;28;20032;-65
2021/05/11 00:39:37;;;;;;;5.15;1.50;;;;;;;20.32;56.22;100760.03;5072200;28;20104;-66
2021/05/11 00:42:03;;;;;;;5.77;1.50;;;;;;;20.32;56.22;100762.69;5072464;28;20163;-65
2021/05/11 00:44:29;;;;;;;5.32;1.40;;;;;;;20.29;56.19;100758.50;5071073;28;20362;-66
2021/05/11 00:47:00;;;;;;;5.70;1.38;;;;;;;20.27;56.28;100748.06;5071933;28;20112;-66
2021/05/11 00:49:28;;;;;;;7.20;1.60;;;;;;;20.30;56.17;100749.59;5071751;28;20032;-66
2021/05/11 00:51:57;;;;;;;5.22;1.42;;;;;;;20.28;56.26;100747.09;5071340;28;20043;-66
2021/05/11 00:54:24;;;;;;;4.40;1.63;;;;;;;20.28;56.12;100747.09;5071628;28;20052;-67
2021/05/11 00:56:49;;;;;;;3.85;1.42;;;;;;;20.29;56.10;100743.44;5072000;28;20094;-65
2021/05/11 00:59:29;;;;;;;8.52;1.70;;;;;;;20.29;56.05;100745.25;5070748;28;20033;-66
2021/05/11 01:01:55;;;;;;;7.07;1.60;;;;;;;20.27;56.20;100736.66;5071864;28;20032;-66
2021/05/11 01:04:22;;;;;;;6.13;1.52;;;;;;;20.28;56.18;100740.94;5070954;28;20031;-66
2021/05/11 01:06:48;;;;;;;4.65;1.67;;;;;;;20.28;56.31;100743.59;5072002;28;20079;-66
2021/05/11 01:09:22;;;;;;;5.18;1.60;;;;;;;20.26;56.04;100733.13;5071629;28;20051;-65
2021/05/11 01:11:47;;;;;;;5.00;1.50;;;;;;;20.25;55.93;100728.84;5071296;28;20029;-65
2021/05/11 01:14:13;;;;;;;5.80;1.50;;;;;;;20.24;56.34;100724.50;5071790;28;20047;-65
2021/05/11 01:16:39;;;;;;;7.85;1.67;;;;;;;20.26;56.04;100724.38;5071760;28;20024;-66
2021/05/11 01:19:27;;;;;;;4.32;1.35;;;;;;;20.27;56.13;100726.06;5071282;28;20084;-66
2021/05/11 01:24:29;;;;;;;4.50;1.65;;;;;;;20.25;56.13;100723.56;5072102;28;20021;-66
2021/05/11 01:27:03;;;;;;;5.63;1.40;;;;;;;20.25;55.88;100730.63;5073694;28;20089;-66
2021/05/11 01:45:44;;;;;;;4.75;1.38;;;;;;;20.21;56.09;100723.97;5078543;28;20474;-66
2021/05/11 01:48:23;;;;;;;4.22;1.48;;;;;;;20.17;56.01;100723.44;5075250;28;20134;-66
2021/05/11 02:10:35;;;;;;;4.45;1.50;;;;;;;20.16;55.93;100740.25;5032635;28;20044;-65
2021/05/11 02:23:28;;;;;;;5.18;1.40;;;;;;;20.14;55.83;100742.22;5073961;28;20125;-66
2021/05/11 02:25:53;;;;;;;4.95;1.60;;;;;;;20.14;56.00;100744.88;5074965;28;20027;-65
2021/05/11 02:28:18;;;;;;;5.70;1.50;;;;;;;20.14;55.99;100744.88;5074440;28;20033;-66
2021/05/11 02:30:44;;;;;;;5.28;1.60;;;;;;;20.12;55.87;100738.88;5074053;28;20440;-67
2021/05/11 02:33:12;;;;;;;4.70;1.42;;;;;;;20.11;55.95;100743.34;5074745;28;20024;-66
2021/05/11 02:35:38;;;;;;;5.57;1.60;;;;;;;20.13;55.62;100737.91;5074604;28;20052;-66
2021/05/11 02:38:03;;;;;;;5.95;1.67;;;;;;;20.12;56.10;100733.56;5073731;28;20048;-66
2021/05/11 02:40:29;;;;;;;5.57;1.63;;;;;;;20.11;55.95;100732.75;5074419;28;20024;-66
2021/05/11 02:43:00;;;;;;;4.32;1.50;;;;;;;20.10;55.52;100730.25;5073988;28;20020;-66
2021/05/11 02:45:26;;;;;;;5.25;1.67;;;;;;;20.11;56.02;100739.84;5074304;28;20024;-66
2021/05/11 02:47:51;;;;;;;5.30;1.73;;;;;;;20.10;56.03;100736.34;5074451;28;20074;-66
2021/05/11 02:50:26;;;;;;;6.28;1.73;;;;;;;20.11;55.95;100742.50;5073184;28;20024;-66
2021/05/11 02:52:52;;;;;;;5.18;1.83;;;;;;;20.10;55.64;100744.28;5074415;28;20136;-65
2021/05/11 02:55:19;;;;;;;6.70;1.83;;;;;;;20.10;56.02;100749.59;5073858;28;20134;-66
2021/05/11 02:57:45;;;;;;;5.90;1.83;;;;;;;20.08;55.64;100751.53;5073669;28;20033;-67
2021/05/11 03:00:13;;;;;;;5.13;1.85;;;;;;;20.10;55.64;100756.69;5074320;28;20075;-66
2021/05/11 03:02:38;;;;;;;4.78;1.65;;;;;;;20.09;55.85;100750.56;5074037;28;20025;-65
2021/05/11 03:05:05;;;;;;;6.80;1.40;;;;;;;20.09;55.85;100744.44;5073029;28;20020;-65
2021/05/11 03:07:30;;;;;;;5.13;1.50;;;;;;;20.09;56.00;100747.94;5073422;28;20021;-66
2021/05/11 03:09:56;;;;;;;3.90;1.40;;;;;;;20.07;55.92;100749.03;5074078;28;20071;-66
2021/05/11 03:12:21;;;;;;;4.88;1.77;;;;;;;20.08;55.94;100738.31;5072664;28;20505;-65
2021/05/11 03:14:46;;;;;;;4.90;1.75;;;;;;;20.08;55.65;100745.44;5073629;28;20024;-66
2021/05/11 03:17:12;;;;;;;5.82;1.60;;;;;;;20.07;55.95;100738.47;5073862;28;20021;-65
2021/05/11 03:19:37;;;;;;;4.85;1.55;;;;;;;20.05;55.99;100732.47;5072851;28;20460;-65
2021/05/11 03:22:02;;;;;;;5.05;1.60;;;;;;;20.04;56.03;100725.50;5073636;28;20025;-65
2021/05/11 03:24:28;;;;;;;5.63;1.98;;;;;;;20.06;55.89;100732.34;5073241;28;20020;-65
2021/05/11 03:26:53;;;;;;;5.05;1.60;;;;;;;20.03;55.73;100713.28;5072767;28;20032;-67
2021/05/11 03:29:21;;;;;;;5.78;1.50;;;;;;;20.06;55.62;100726.19;5073291;28;20085;-67
2021/05/11 03:31:46;;;;;;;7.25;1.90;;;;;;;20.05;55.82;100725.38;5073414;28;20361;-66
2021/05/11 03:34:12;;;;;;;5.97;1.65;;;;;;;20.05;55.95;100725.38;5072490;28;20028;-66
2021/05/11 03:36:37;;;;;;;5.45;1.58;;;;;;;20.05;55.89;100729.84;5073473;28;20031;-66
2021/05/11 03:39:06;;;;;;;6.13;1.63;;;;;;;20.01;55.89;100718.72;5072603;28;20482;-67
2021/05/11 03:41:44;;;;;;;4.95;1.60;;;;;;;20.04;55.79;100722.88;5072901;28;20391;-65
2021/05/11 03:46:36;;;;;;;4.38;1.48;;;;;;;20.04;55.83;100730.78;5072014;28;20128;-67
2021/05/11 03:49:04;;;;;;;6.55;1.70;;;;;;;20.03;56.04;100727.31;5073106;28;20302;-66
2021/05/11 03:51:29;;;;;;;6.95;1.85;;;;;;;20.03;55.64;100729.97;5072916;28;20104;-67
2021/05/11 03:53:55;;;;;;;7.32;1.73;;;;;;;20.01;55.83;100724.00;5071533;28;20174;-67
2021/05/11 03:56:20;;;;;;;6.45;1.70;;;;;;;20.02;55.97;100727.47;5072709;28;20020;-65
2021/05/11 03:58:46;;;;;;;4.93;1.60;;;;;;;20.03;55.68;100729.16;5072937;28;20024;-66
2021/05/11 04:01:12;;;;;;;5.40;1.75;;;;;;;20.02;55.97;100732.75;5071968;28;20028;-66
2021/05/11 04:03:37;;;;;;;6.65;1.92;;;;;;;20.02;56.03;100738.88;5073096;28;20371;-66
2021/05/11 04:06:03;;;;;;;5.80;1.90;;;;;;;20.02;55.42;100740.69;5073014;28;20032;-67
2021/05/11 04:10:58;;;;;;;5.43;1.55;;;;;;;20.01;55.93;100745.16;5072852;28;20028;-66
2021/05/11 04:13:39;;;;;;;6.55;1.60;;;;;;;20.00;55.65;100745.28;5072180;28;20024;-66
2021/05/11 04:16:17;;;;;;;4.57;1.50;;;;;;;20.00;55.69;100747.94;5072032;28;20058;-65
2021/05/11 04:18:46;;;;;;;4.82;1.50;;;;;;;20.00;55.92;100742.66;5072514;28;20090;-66
2021/05/11 04:21:11;;;;;;;4.75;1.45;;;;;;;20.00;55.48;100742.66;5072316;28;20099;-67
2021/05/11 04:23:36;;;;;;;5.88;1.83;;;;;;;20.00;56.00;100745.28;5071555;28;20102;-66
2021/05/11 04:26:02;;;;;;;5.47;1.60;;;;;;;19.99;55.72;100738.31;5072273;28;20028;-66
2021/05/11 04:28:30;;;;;;;5.85;1.73;;;;;;;19.98;55.90;100740.16;5071145;28;20062;-66
2021/05/11 04:30:56;;;;;;;4.75;1.52;;;;;;;19.98;56.06;100741.94;5072306;28;20078;-66
2021/05/11 04:33:21;;;;;;;6.30;1.65;;;;;;;19.97;55.66;100737.63;5071996;28;20025;-67
2021/05/11 04:35:46;;;;;;;5.18;1.65;;;;;;;19.98;55.85;100741.94;5071529;28;20020;-66
2021/05/11 04:38:12;;;;;;;7.80;2.00;;;;;;;19.96;56.02;100742.06;5071823;28;20026;-66
2021/05/11 04:40:37;;;;;;;5.13;1.60;;;;;;;19.97;55.82;100748.22;5071395;28;20395;-65
2021/05/11 04:43:04;;;;;;;6.15;1.77;;;;;;;19.91;55.96;100742.47;5070942;28;20060;-66
2021/05/11 04:45:33;;;;;;;7.13;2.10;;;;;;;19.97;56.18;100750.88;5071162;28;20036;-65
2021/05/11 04:47:58;;;;;;;7.18;1.73;;;;;;;19.96;55.97;100759.75;5071612;28;20027;-67
2021/05/11 04:50:27;;;;;;;7.85;1.88;;;;;;;19.97;55.83;100756.16;5070242;28;20029;-66
2021/05/11 04:52:52;;;;;;;5.47;1.67;;;;;;;19.96;55.78;100757.13;5071114;28;20037;-66
2021/05/11 04:55:18;;;;;;;4.88;1.40;;;;;;;19.93;55.78;100750.28;5071246;28;20040;-66
2021/05/11 04:57:44;;;;;;;6.63;2.05;;;;;;;19.96;56.04;100750.00;5069214;28;20028;-66
2021/05/11 05:00:34;;;;;;;4.43;1.70;;;;;;;19.96;55.94;100746.53;5071338;28;20214;-66
2021/05/11 05:03:02;;;;;;;6.40;1.98;;;;;;;19.96;56.16;100746.53;5070871;28;20598;-66
2021/05/11 05:05:28;;;;;;;5.10;1.80;;;;;;;19.95;55.75;100743.06;5069331;28;20052;-65
2021/05/11 05:07:53;;;;;;;6.07;1.70;;;;;;;19.95;56.22;100743.06;5071222;28;20486;-65
2021/05/11 05:10:18;;;;;;;5.22;1.70;;;;;;;19.93;55.74;100751.13;5070873;28;20029;-66
2021/05/11 05:12:46;;;;;;;6.43;2.13;;;;;;;19.94;56.08;100755.44;5070687;28;20099;-65
2021/05/11 05:15:15;;;;;;;4.50;1.50;;;;;;;19.93;55.94;100753.78;5071408;28;20348;-66
2021/05/11 05:17:41;;;;;;;6.38;2.13;;;;;;;19.93;56.17;100752.94;5070223;28;20491;-66
2021/05/11 05:20:07;;;;;;;6.78;1.98;;;;;;;19.93;56.24;100753.78;5071267;28;20024;-66
2021/05/11 05:22:32;;;;;;;4.88;1.70;;;;;;;19.96;55.83;100754.47;5071016;28;20040;-66
2021/05/11 05:25:00;;;;;;;6.47;1.75;;;;;;;19.94;56.23;100754.59;5070778;28;20107;-66
2021/05/11 05:27:38;;;;;;;5.22;1.98;;;;;;;19.94;56.35;100755.44;5071128;28;20102;-66
2021/05/11 05:30:04;;;;;;;5.60;1.70;;;;;;;19.94;55.92;100759.91;5071006;28;20043;-66
2021/05/11 05:32:30;;;;;;;6.47;1.80;;;;;;;19.94;56.19;100758.06;5069967;28;20025;-66
2021/05/11 05:34:55;;;;;;;5.60;1.95;;;;;;;19.94;56.16;100758.06;5071078;28;20214;-66
2021/05/11 05:37:20;;;;;;;8.85;1.98;;;;;;;19.94;56.02;100754.59;5070597;28;20056;-66
2021/05/11 05:39:48;;;;;;;4.95;1.67;;;;;;;19.93;56.37;100751.13;5070413;28;20074;-66
2021/05/11 05:42:13;;;;;;;7.57;2.60;;;;;;;19.93;56.19;100743.19;5070637;28;20025;-66
2021/05/11 05:44:39;;;;;;;6.68;1.80;;;;;;;19.93;56.26;100740.56;5071077;28;20104;-67
2021/05/11 05:47:04;;;;;;;6.07;1.90;;;;;;;19.94;56.29;100746.66;5070456;28;20032;-66
2021/05/11 05:49:44;;;;;;;4.68;1.52;;;;;;;19.94;56.37;100741.38;5070490;28;20049;-66
2021/05/11 05:52:17;;;;;;;5.97;1.95;;;;;;;19.94;56.12;100744.03;5071149;28;20132;-65
2021/05/11 05:54:44;;;;;;;5.03;1.77;;;;;;;19.93;56.16;100737.91;5069763;28;20373;-66
2021/05/11 05:57:12;;;;;;;5.13;1.73;;;;;;;19.93;56.45;100735.28;5071097;28;20033;-66
2021/05/11 05:59:40;;;;;;;6.22;1.80;;;;;;;19.92;56.32;100738.88;5070711;28;20055;-65
2021/05/11 06:02:16;;;;;;;5.70;1.83;;;;;;;19.94;56.19;100742.22;5069700;28;20029;-66
2021/05/11 06:04:44;;;;;;;6.13;2.25;;;;;;;19.92;56.44;100741.53;5070963;28;20143;-67
2021/05/11 06:07:10;;;;;;;7.18;1.90;;;;;;;19.95;56.35;100745.72;5070026;28;20380;-66
2021/05/11 06:09:35;;;;;;;4.47;1.70;;;;;;;19.94;56.45;100742.22;5070479;28;20059;-67
2021/05/11 06:12:05;;;;;;;5.05;1.70;;;;;;;19.94;56.52;100744.84;5070663;28;20032;-65
2021/05/11 06:17:00;;;;;;;8.90;1.92;;;;;;;19.95;56.46;100751.00;5069442;28;20193;-65
2021/05/11 06:17:35;;;;;;;6.57;1.88;;;;;;;19.95;56.25;100753.66;5073723;28;20071;-67
2021/05/11 06:20:00;;;;;;;5.45;1.70;;;;;;;19.94;56.28;100755.44;5074182;28;20028;-67
2021/05/11 06:22:25;;;;;;;6.30;1.88;;;;;;;19.93;56.03;100753.78;5073139;28;20043;-66
2021/05/11 06:24:51;;;;;;;6.60;2.00;;;;;;;19.91;56.27;100745.13;5074248;28;20048;-68
2021/05/11 06:27:17;;;;;;;5.18;2.08;;;;;;;19.94;56.32;100751.97;5074142;28;20021;-68
2021/05/11 06:29:46;;;;;;;7.13;1.92;;;;;;;19.91;56.35;100742.47;5073545;28;20077;-67
2021/05/11 06:32:13;;;;;;;5.82;2.03;;;;;;;19.94;56.45;100744.84;5073944;28;20025;-66
2021/05/11 06:34:43;;;;;;;5.93;1.95;;;;;;;19.94;56.77;100734.28;5074072;28;20149;-66
2021/05/11 06:37:08;;;;;;;6.10;1.90;;;;;;;19.97;56.36;100735.00;5073199;28;20178;-66
2021/05/11 06:39:35;;;;;;;6.90;1.90;;;;;;;19.98;56.87;100737.50;5073351;28;20495;-65
2021/05/11 06:42:00;;;;;;;5.95;2.10;;;;;;;19.92;56.71;100728.28;5073247;28;20628;-64
2021/05/11 06:44:43;;;;;;;5.43;2.10;;;;;;;20.00;56.70;100732.91;5089032;28;20021;-64
2021/05/11 06:47:27;;;;;;;6.57;2.33;;;;;;;20.00;57.15;100732.91;5073839;28;20471;-66
2021/05/11 06:55:19;;;;;;;4.50;1.95;;;;;;;20.05;57.34;100735.13;5073822;28;20090;-65
2021/05/11 06:57:44;;;;;;;5.85;1.90;;;;;;;20.07;57.50;100733.16;5072464;28;20064;-65
2021/05/11 07:00:11;;;;;;;5.03;2.05;;;;;;;20.04;57.42;100728.97;5073522;28;20056;-65
2021/05/11 07:02:37;;;;;;;6.78;1.98;;;;;;;20.08;57.44;100727.72;5073082;28;20384;-65
2021/05/11 07:05:03;;;;;;;6.15;2.30;;;;;;;20.10;57.23;100723.13;5072953;28;20077;-65
2021/05/11 07:07:30;;;;;;;5.72;1.90;;;;;;;20.15;57.44;100728.00;5073297;28;20051;-66
2021/05/11 07:15:05;;;;;;;5.32;1.85;;;;;;;20.15;57.17;100725.34;5073381;28;20101;-67
2021/05/11 07:17:31;;;;;;;8.32;1.80;;;;;;;20.11;57.13;100716.06;5072460;28;20056;-67
2021/05/11 07:19:56;;;;;;;5.97;2.25;;;;;;;20.17;57.17;100718.13;5073312;28;20016;-69
2021/05/11 07:22:22;;;;;;;6.05;1.70;;;;;;;20.16;57.23;100710.34;5072726;28;20392;-66
2021/05/11 07:24:51;;;;;;;6.90;2.20;;;;;;;20.17;57.34;100709.34;5070403;28;20032;-67
2021/05/11 07:27:34;;;;;;;8.57;1.90;;;;;;;20.17;57.34;100714.63;5071806;28;20420;-65
2021/05/11 07:32:34;;;;;;;5.40;1.65;;;;;;;20.16;56.89;100707.69;5072539;28;20044;-63
2021/05/11 07:35:01;;;;;;;5.45;1.95;;;;;;;20.19;56.90;100713.53;5073613;28;20111;-65
2021/05/11 07:37:32;;;;;;;5.85;2.00;;;;;;;20.20;57.06;100717.84;5073192;28;20024;-63
2021/05/11 07:39:58;;;;;;;6.00;1.70;;;;;;;20.21;56.84;100722.16;5072846;28;20103;-64
2021/05/11 07:42:26;;;;;;;6.78;1.70;;;;;;;20.21;56.96;100722.16;5073373;28;20108;-64
2021/05/11 07:44:55;;;;;;;6.00;1.88;;;;;;;20.20;56.44;100717.00;5073360;28;20021;-64
2021/05/11 07:47:31;;;;;;;4.57;1.70;;;;;;;20.18;56.74;100717.13;5072279;28;20037;-63
2021/05/11 07:50:37;;;;;;;10.40;1.92;;;;;;;20.21;56.71;100729.25;5073180;28;20494;-67
2021/05/11 08:14:43;;;;;;;7.32;2.00;;;;;;;20.20;56.84;100731.09;5070059;28;20499;-64
2021/05/11 08:17:09;;;;;;;6.55;2.00;;;;;;;20.19;56.59;100732.06;5072628;28;20032;-65
2021/05/11 08:20:04;;;;;;;4.70;1.58;;;;;;;20.19;56.63;100734.69;5072002;28;20024;-65
2021/05/11 08:27:58;;;;;;;7.25;1.70;;;;;;;20.17;56.63;100749.88;5071492;28;20089;-65
2021/05/11 08:30:25;;;;;;;5.70;2.30;;;;;;;20.18;56.49;100750.72;5072276;28;20029;-65
2021/05/11 08:32:51;;;;;;;5.22;1.80;;;;;;;20.17;56.63;100756.97;5072383;28;20032;-66
2021/05/11 08:35:16;;;;;;;6.32;1.90;;;;;;;20.15;56.62;100753.63;5070951;28;20143;-66
2021/05/11 08:37:41;;;;;;;5.82;1.80;;;;;;;20.15;56.96;100748.34;5072348;28;20025;-65
2021/05/11 08:40:07;;;;;;;6.57;1.60;;;;;;;20.16;56.87;100758.78;5072329;28;20025;-65
2021/05/11 08:42:33;;;;;;;5.60;1.50;;;;;;;20.16;56.99;100752.66;5070884;28;20673;-65
2021/05/11 08:45:10;;;;;;;4.88;1.55;;;;;;;20.14;56.88;100750.16;5072204;28;20142;-66
2021/05/11 08:47:48;;;;;;;4.95;1.50;;;;;;;20.16;57.06;100756.16;5071767;28;20490;-63
2021/05/11 08:50:17;;;;;;;7.20;1.60;;;;;;;20.17;56.78;100757.81;5071113;28;20020;-65
2021/05/11 08:53:05;;;;;;;6.88;1.75;;;;;;;20.17;57.11;100756.97;5071696;28;20383;-65
2021/05/11 09:59:59;;;;;;;7.22;1.98;;;;;;;20.27;57.85;100768.41;5074404;28;20040;-65
2021/05/11 10:27:02;;;;;;;6.53;1.60;;;;;;;20.36;58.05;100737.59;5075172;28;20043;-69
2021/05/11 10:49:30;;;;;;;5.32;1.50;;;;;;;20.55;57.81;100689.06;5074081;28;20430;-64
2021/05/11 10:52:16;;;;;;;6.18;1.50;;;;;;;20.56;57.64;100675.69;5074572;28;20025;-64
2021/05/11 10:54:54;;;;;;;5.68;1.58;;;;;;;20.56;57.79;100678.31;5074230;28;20049;-63
2021/05/11 10:57:31;;;;;;;5.60;1.65;;;;;;;20.59;57.53;100683.34;5069735;28;22754;-66
2021/05/11 11:00:20;;;;;;;4.75;1.65;;;;;;;20.58;57.85;100684.31;5055837;28;20033;-66
2021/05/11 11:03:16;;;;;;;6.60;1.52;;;;;;;20.61;58.02;100683.19;5037556;28;20055;-66
2021/05/11 11:05:57;;;;;;;3.85;1.35;;;;;;;20.64;57.87;100689.06;5052653;28;20048;-65
2021/05/11 11:08:30;;;;;;;6.38;1.70;;;;;;;20.66;58.16;100686.25;5040317;28;20426;-65
2021/05/11 11:11:16;;;;;;;7.72;1.95;;;;;;;20.65;58.30;100690.72;5018071;27;20046;-66
2021/05/11 11:13:50;;;;;;;4.47;1.40;;;;;;;20.63;58.13;100690.03;5073534;28;20641;-65
2021/05/11 11:16:18;;;;;;;5.32;1.23;;;;;;;20.60;58.02;100682.38;5073208;28;20020;-65
2021/05/11 11:18:47;;;;;;;5.55;1.60;;;;;;;20.63;58.08;100686.53;5073912;28;20032;-67
2021/05/11 11:23:55;;;;;;;5.72;1.70;;;;;;;20.63;58.10;100705.06;5073685;28;20480;-67
2021/05/11 11:26:30;;;;;;;4.78;1.40;;;;;;;20.61;58.34;100701.72;5073457;28;20032;-66
2021/05/11 11:29:07;;;;;;;4.07;1.63;;;;;;;20.62;58.27;100709.53;5074291;28;20025;-67
2021/05/11 11:31:37;;;;;;;5.65;1.48;;;;;;;20.63;58.10;100715.66;5073083;28;20024;-65
2021/05/11 11:34:23;;;;;;;4.20;1.50;;;;;;;20.61;58.26;100713.13;5073513;28;20024;-65
2021/05/11 11:36:58;;;;;;;4.05;1.45;;;;;;;20.60;58.44;100719.44;5072942;28;20096;-63
2021/05/11 11:39:31;;;;;;;7.05;2.00;;;;;;;20.58;58.22;100716.06;5072441;28;20029;-62
2021/05/11 11:42:00;;;;;;;4.68;1.48;;;;;;;20.55;57.70;100715.53;5073190;28;20044;-66
2021/05/11 11:44:36;;;;;;;5.70;1.58;;;;;;;20.51;57.72;100715.00;5072176;28;20108;-66
2021/05/11 11:47:12;;;;;;;5.15;1.40;;;;;;;20.51;57.66;100728.22;5072627;28;20044;-65
2021/05/11 11:49:42;;;;;;;4.35;1.42;;;;;;;20.50;57.68;100717.78;5072705;28;20024;-63
2021/05/11 11:52:13;;;;;;;6.68;1.63;;;;;;;20.51;58.08;100724.75;5072297;28;20036;-65
2021/05/11 11:54:44;;;;;;;5.15;1.90;;;;;;;20.50;57.90;100713.31;5073019;28;20127;-64
2021/05/11 12:00:14;;;;;;;4.30;1.13;;;;;;;20.53;58.04;100722.78;5072248;28;20047;-67
2021/05/11 12:03:10;;;;;;;4.88;1.30;;;;;;;20.52;58.05;100721.13;5073048;28;20033;-68
2021/05/11 12:05:48;;;;;;;4.60;1.30;;;;;;;20.51;57.44;100715.00;5072428;28;20040;-65
2021/05/11 12:10:58;;;;;;;4.90;1.35;;;;;;;20.55;57.52;100723.47;5073001;28;20028;-65
2021/05/11 12:13:32;;;;;;;4.88;1.15;;;;;;;20.56;57.80;100714.56;5071634;28;20028;-63
2021/05/11 12:16:10;;;;;;;;;;;;;;;20.58;57.91;100725.84;5073896;28;20020;-63
2021/05/11 12:18:38;;;;;;;5.45;1.30;;;;;;;20.57;57.75;100721.50;5073418;28;20027;-65
2021/05/11 12:21:06;;;;;;;5.38;1.30;;;;;;;20.59;57.65;100720.41;5073092;28;20040;-65
2021/05/11 12:23:31;;;;;;;3.63;1.45;;;;;;;20.62;57.98;100719.28;5073871;28;20095;-64
2021/05/11 12:26:03;;;;;;;5.20;1.25;;;;;;;20.62;57.90;100722.75;5074294;28;20121;-66
2021/05/11 12:28:43;;;;;;;3.80;1.10;;;;;;;20.62;57.73;100722.75;5072866;28;20033;-66
2021/05/11 12:31:10;;;;;;;5.40;1.50;;;;;;;20.62;58.20;100725.41;5073318;28;20053;-67
2021/05/11 12:33:43;;;;;;;4.68;1.50;;;;;;;20.64;57.70;100717.34;5072713;28;20021;-68
2021/05/11 12:36:15;;;;;;;5.93;1.58;;;;;;;20.63;57.39;100720.94;5073126;28;20029;-68
2021/05/11 12:38:44;;;;;;;4.35;1.15;;;;;;;20.63;57.36;100724.44;5072227;28;20529;-68
2021/05/11 12:41:26;;;;;;;3.92;1.20;;;;;;;20.64;57.35;100730.59;5071748;28;20107;-68
2021/05/11 12:43:52;;;;;;;4.72;1.38;;;;;;;20.63;57.32;100731.53;5072469;28;20021;-68
2021/05/11 12:46:24;;;;;;;4.25;1.30;;;;;;;20.63;57.17;100735.03;5071890;28;20040;-68
2021/05/11 12:48:54;;;;;;;4.40;1.30;;;;;;;20.65;57.57;100729.63;5071769;28;20060;-64
2021/05/11 12:51:29;;;;;;;5.88;1.30;;;;;;;20.65;57.43;100732.28;5072091;28;20031;-65
2021/05/11 12:53:58;;;;;;;5.00;1.15;;;;;;;20.65;57.27;100727.81;5071946;28;20048;-65
2021/05/11 13:02:36;;;;;;;6.32;1.80;;;;;;;20.62;57.71;100729.88;5071489;28;20036;-68
2021/05/11 13:16:53;;;;;;;3.78;1.33;;;;;;;20.58;57.22;100737.25;5016308;28;20045;-66
2021/05/11 13:27:25;;;;;;;3.58;1.08;;;;;;;20.50;57.66;100737.13;5071053;28;20098;-64
2021/05/11 13:32:25;;;;;;;6.07;1.55;;;;;;;20.45;57.36;100734.91;5071317;28;20028;-66
2021/05/11 13:34:51;;;;;;;5.32;1.30;;;;;;;20.47;57.42;100734.78;5071650;28;20063;-65
2021/05/11 13:37:17;;;;;;;5.95;1.50;;;;;;;20.45;57.60;100742.84;5070762;28;20020;-71
2021/05/11 13:39:42;;;;;;;5.07;1.42;;;;;;;20.46;57.53;100743.72;5071771;28;20090;-65
2021/05/11 13:42:08;;;;;;;7.13;1.67;;;;;;;20.45;57.53;100749.97;5071847;28;20024;-65
2021/05/11 13:44:33;;;;;;;4.32;1.48;;;;;;;20.45;57.64;100748.16;5070789;28;20166;-64
2021/05/11 13:46:59;;;;;;;5.75;1.23;;;;;;;20.46;58.25;100749.84;5076103;28;20036;-63
2021/05/11 13:49:29;;;;;;;4.05;1.20;;;;;;;20.43;57.73;100733.41;5072610;28;20025;-65
2021/05/11 13:51:54;;;;;;;3.95;1.25;;;;;;;20.44;58.08;100727.97;5070549;28;20032;-65
2021/05/11 13:54:22;;;;;;;8.82;1.55;;;;;;;20.44;58.21;100720.03;5070806;28;20109;-65
2021/05/11 13:57:11;;;;;;;4.18;1.25;;;;;;;20.38;58.40;100704.72;5071595;28;20107;-64
2021/05/11 14:04:48;;;;;;;5.22;1.50;;;;;;;20.39;58.46;100674.59;5071571;28;20460;-64
2021/05/11 14:07:13;;;;;;;5.25;1.30;;;;;;;20.44;58.12;100693.56;5070089;28;20035;-65
2021/05/11 14:09:39;;;;;;;4.68;1.35;;;;;;;20.45;58.05;100708.44;5071328;28;20031;-65
2021/05/11 14:12:04;;;;;;;4.63;1.65;;;;;;;20.48;57.93;100715.28;5071142;28;20139;-67
2021/05/11 14:14:33;;;;;;;5.78;1.83;;;;;;;20.48;58.12;100720.56;5070984;28;20135;-65
2021/05/11 14:16:58;;;;;;;4.93;1.35;;;;;;;20.49;57.97;100732.84;5071445;28;20472;-65
2021/05/11 14:19:25;;;;;;;5.13;1.20;;;;;;;20.48;58.33;100744.41;5070373;28;20041;-64
2021/05/11 14:21:50;;;;;;;6.82;1.65;;;;;;;20.44;58.30;100737.72;5071371;28;20077;-64
2021/05/11 14:24:16;;;;;;;4.57;1.38;;;;;;;20.46;58.62;100735.78;5070914;28;20021;-65
2021/05/11 14:26:41;;;;;;;4.80;1.20;;;;;;;20.44;58.26;100727.97;5070900;28;20036;-64
2021/05/11 14:29:07;;;;;;;4.57;1.20;;;;;;;20.43;58.16;100728.13;5071429;28;20051;-67
2021/05/11 14:31:33;;;;;;;4.05;1.20;;;;;;;20.44;58.18;100732.41;5070992;28;20039;-68
2021/05/11 14:33:59;;;;;;;4.15;1.38;;;;;;;20.46;58.21;100743.72;5070908;28;20029;-66
2021/05/11 14:36:24;;;;;;;6.05;1.63;;;;;;;20.45;57.99;100749.97;5071026;28;20020;-67
2021/05/11 14:38:49;;;;;;;3.80;1.40;;;;;;;20.45;58.31;100739.38;5074620;28;20162;-66
2021/05/11 14:41:18;;;;;;;5.03;1.55;;;;;;;20.44;58.22;100724.47;5073722;28;20482;-65
2021/05/11 14:43:43;;;;;;;4.93;1.35;;;;;;;20.45;58.20;100724.34;5074697;28;20074;-65
2021/05/11 14:46:10;;;;;;;4.50;1.33;;;;;;;20.43;57.92;100723.66;5074581;28;20046;-67
2021/05/11 14:48:35;;;;;;;5.65;1.58;;;;;;;20.45;57.94;100726.97;5073669;28;20025;-68
2021/05/11 14:51:02;;;;;;;7.18;1.98;;;;;;;20.45;58.13;100726.16;5074393;28;20067;-67
2021/05/11 14:53:29;;;;;;;5.55;1.48;;;;;;;20.46;58.10;100730.47;5074107;28;20492;-67
2021/05/11 14:56:01;;;;;;;4.50;1.42;;;;;;;20.46;57.57;100728.66;5073849;28;20041;-67
2021/05/11 14:58:29;;;;;;;6.78;1.40;;;;;;;20.46;58.04;100730.47;5074064;28;20023;-67
2021/05/11 15:00:55;;;;;;;8.85;3.08;;;;;;;20.48;58.06;100739.94;5074436;28;20085;-67
2021/05/11 15:03:20;;;;;;;4.93;1.60;;;;;;;20.49;58.02;100743.44;5073230;28;20107;-67
2021/05/11 15:05:48;;;;;;;4.43;1.52;;;;;;;20.49;57.90;100738.13;5075122;28;20021;-68
2021/05/11 15:08:14;;;;;;;5.05;1.73;;;;;;;20.47;57.58;100735.63;5074343;28;20115;-66
2021/05/11 15:10:39;;;;;;;5.03;1.45;;;;;;;20.49;57.96;100732.84;5076159;28;20368;-69
2021/05/11 15:13:05;;;;;;;3.25;1.27;;;;;;;20.52;57.51;100726.41;5077943;28;20055;-68
2021/05/11 15:15:31;;;;;;;5.45;1.58;;;;;;;20.52;57.77;100721.97;5074668;28;20032;-65
2021/05/11 15:18:04;;;;;;;6.13;1.50;;;;;;;20.54;57.64;100725.31;5078810;28;20028;-65
2021/05/11 15:20:31;;;;;;;5.75;1.67;;;;;;;20.57;57.61;100726.81;5080636;28;20028;-64
2021/05/11 15:22:57;;;;;;;5.38;1.45;;;;;;;20.59;57.75;100719.56;5079830;28;20103;-66
2021/05/11 15:25:22;;;;;;;5.28;1.60;;;;;;;20.59;57.66;100720.41;5078084;28;20488;-65
2021/05/11 15:27:51;;;;;;;3.88;1.15;;;;;;;20.62;57.65;100722.75;5074148;28;20435;-64
2021/05/11 15:30:16;;;;;;;6.07;1.67;;;;;;;20.63;57.87;100723.59;5073253;28;20032;-64
2021/05/11 15:32:45;;;;;;;5.13;1.98;;;;;;;20.62;57.54;100722.75;5073637;28;20518;-71
2021/05/11 15:35:15;;;;;;;5.95;2.00;;;;;;;20.62;57.70;100730.72;5073723;28;20025;-64
2021/05/11 15:37:52;;;;;;;4.55;1.50;;;;;;;20.61;57.55;100736.16;5072745;28;20021;-66